CheckWX is a tool to help pilots better visualize weather data.  It is not intended as a substitute for an official pre-flight weather briefing.

01:42:31 UTC

KIND METAR
Indianapolis International Airport
Indianapolis, Indiana, USA
Current

49 mins ago

KIND 240054Z 14015KT 10SM OVC005 11/11 A2960 RMK AO2 SLP023 T01110106
Observed
Feb-24 @ 00:54 UTC
Wind
  • 140° at 15 KTS
Visibility
10 SM
Flight Rules
IFR
Cloud Levels
  • Overcast at 500' AGL
Temperature
11°C / 52°F
Dewpoint
11°C / 52°F
Humidity
100%
Altimeter
29.6" Hg
Pressure
1002.3 hPa
Previous

1 hour ago

KIND 240021Z 12010KT 10SM BKN009 OVC160 10/09 A2963 RMK AO2 T01000094
Observed
Feb-24 @ 00:21 UTC
Wind
  • 120° at 10 KTS
Visibility
10 SM
Flight Rules
IFR
Cloud Levels
  • Broken at 900' AGL
  • Overcast at 16,000' AGL
Temperature
10°C / 50°F
Dewpoint
C / 48°F
Humidity
94%
Altimeter
29.63" Hg
Pressure
1003.42 hPa
Previous

2 hours ago

KIND 232354Z 11008KT 10SM FEW005 OVC011 09/09 A2964 RMK AO2 SLP041 60002 T00940089 10100 20078 56040
Observed
Feb-23 @ 23:54 UTC
Wind
  • 110° at 8 KTS
Visibility
10 SM
Flight Rules
MVFR
Cloud Levels
  • Few at 500' AGL
  • Overcast at 1,100' AGL
Temperature
C / 48°F
Dewpoint
C / 48°F
Humidity
100%
Altimeter
29.64" Hg
Pressure
1004.1 hPa